createdAt,value
2018-05-08T00:01:14.925Z,13.50
2018-05-08T00:03:42.484Z,13.50
2018-05-08T00:06:09.940Z,13.40
2018-05-08T00:08:37.500Z,13.40
2018-05-08T00:11:04.967Z,13.40
2018-05-08T00:13:32.526Z,13.40
2018-05-08T00:16:00.077Z,13.40
2018-05-08T00:18:27.533Z,13.50
2018-05-08T00:20:54.995Z,13.50
2018-05-08T00:23:22.567Z,13.60
2018-05-08T00:25:50.121Z,13.60
2018-05-08T00:28:17.676Z,13.60
2018-05-08T00:30:45.192Z,13.60
2018-05-08T00:33:12.596Z,13.60
2018-05-08T00:35:40.054Z,13.60
2018-05-08T00:38:07.512Z,13.40
2018-05-08T00:40:35.784Z,13.30
2018-05-08T00:43:03.248Z,13.30
2018-05-08T00:45:30.883Z,13.20
2018-05-08T00:47:58.368Z,13.20
2018-05-08T00:50:25.925Z,13.10
2018-05-08T00:52:53.384Z,13.10
2018-05-08T00:55:20.845Z,13.00
2018-05-08T00:57:48.316Z,13.00
2018-05-08T01:00:15.773Z,12.90
2018-05-08T01:02:43.316Z,12.90
2018-05-08T01:05:10.886Z,13.00
2018-05-08T01:07:38.449Z,12.90
2018-05-08T01:10:06.001Z,13.00
2018-05-08T01:12:33.559Z,12.90
2018-05-08T01:15:01.121Z,12.90
2018-05-08T01:17:28.577Z,12.90
2018-05-08T01:19:56.141Z,12.80
2018-05-08T01:22:24.422Z,12.70
2018-05-08T01:24:51.973Z,12.70
2018-05-08T01:27:19.444Z,12.70
2018-05-08T01:29:46.905Z,12.70
2018-05-08T01:32:14.369Z,12.60
2018-05-08T01:34:41.910Z,12.60
2018-05-08T01:37:09.365Z,12.60
2018-05-08T01:39:36.924Z,12.50
2018-05-08T01:42:04.449Z,12.50
2018-05-08T01:44:31.900Z,12.40
2018-05-08T01:46:59.356Z,12.40
2018-05-08T01:49:26.817Z,12.40
2018-05-08T01:51:54.283Z,12.40
2018-05-08T01:54:21.739Z,12.40
2018-05-08T01:56:49.241Z,12.40
2018-05-08T01:59:16.793Z,12.40
2018-05-08T02:01:44.357Z,12.30
2018-05-08T02:04:11.831Z,12.20
2018-05-08T02:06:39.440Z,12.20
2018-05-08T02:09:06.887Z,12.20
2018-05-08T02:11:34.352Z,12.10
2018-05-08T02:14:01.853Z,12.10
2018-05-08T02:16:29.682Z,12.00
2018-05-08T02:18:57.185Z,12.00
2018-05-08T02:21:25.492Z,11.90
2018-05-08T02:23:53.719Z,11.80
2018-05-08T02:26:21.869Z,11.80
2018-05-08T02:28:49.332Z,11.80
2018-05-08T02:31:16.851Z,11.70
2018-05-08T02:33:45.055Z,11.70
2018-05-08T02:36:12.564Z,11.60
2018-05-08T02:38:40.117Z,11.60
2018-05-08T02:41:07.581Z,11.60
2018-05-08T02:43:35.045Z,11.50
2018-05-08T02:46:02.505Z,11.50
2018-05-08T02:48:29.965Z,11.40
2018-05-08T02:50:57.424Z,11.40
2018-05-08T02:53:24.965Z,11.30
2018-05-08T02:55:52.533Z,11.30
2018-05-08T02:58:20.052Z,11.30
2018-05-08T03:00:47.550Z,11.30
2018-05-08T03:03:15.109Z,11.20
2018-05-08T03:05:42.568Z,11.20
2018-05-08T03:08:10.022Z,11.10
2018-05-08T03:10:37.590Z,11.10
2018-05-08T03:13:05.866Z,11.00
2018-05-08T03:15:33.421Z,11.00
2018-05-08T03:18:00.891Z,11.00
2018-05-08T03:20:28.500Z,10.90
2018-05-08T03:22:55.945Z,10.90
2018-05-08T03:25:23.415Z,10.80
2018-05-08T03:27:50.863Z,10.70
2018-05-08T03:30:18.317Z,10.70
2018-05-08T03:32:45.781Z,10.60
2018-05-08T03:35:13.232Z,10.60
2018-05-08T03:37:40.744Z,10.60
2018-05-08T03:40:08.315Z,10.50
2018-05-08T03:42:36.538Z,10.50
2018-05-08T03:45:04.000Z,10.40
2018-05-08T03:47:31.504Z,10.40
2018-05-08T03:49:58.969Z,10.50
2018-05-08T03:52:26.428Z,10.40
2018-05-08T03:54:53.884Z,10.40
2018-05-08T03:57:21.395Z,10.40
2018-05-08T03:59:48.796Z,10.40
2018-05-08T04:02:28.125Z,10.40
2018-05-08T04:05:07.526Z,10.30
2018-05-08T04:07:47.006Z,10.30
2018-05-08T04:10:14.465Z,10.30
2018-05-08T04:12:42.836Z,10.30
2018-05-08T04:15:10.340Z,10.40
2018-05-08T04:17:37.762Z,10.40
2018-05-08T04:20:05.318Z,10.40
2018-05-08T04:22:32.880Z,10.40
2018-05-08T04:25:00.333Z,10.40
2018-05-08T04:27:27.792Z,10.50
2018-05-08T04:29:55.249Z,10.50
2018-05-08T04:32:22.709Z,10.50
2018-05-08T04:34:50.273Z,10.60
2018-05-08T04:37:17.824Z,10.60
2018-05-08T04:39:45.284Z,10.60
2018-05-08T04:42:12.844Z,10.70
2018-05-08T04:44:40.413Z,10.80
2018-05-08T04:47:07.882Z,10.80
2018-05-08T04:49:35.425Z,10.80
2018-05-08T04:52:02.889Z,10.90
2018-05-08T04:54:30.508Z,11.00
2018-05-08T04:56:57.957Z,11.00
2018-05-08T04:59:25.471Z,11.10
2018-05-08T05:01:53.087Z,11.30
2018-05-08T05:04:20.544Z,11.40
2018-05-08T05:06:48.003Z,11.60
2018-05-08T05:09:15.496Z,11.60
2018-05-08T05:11:43.057Z,11.70
2018-05-08T05:14:10.512Z,11.80
2018-05-08T05:16:38.052Z,11.90
2018-05-08T05:19:05.534Z,12.00
2018-05-08T05:21:32.993Z,12.00
2018-05-08T05:24:00.456Z,12.20
2018-05-08T05:26:27.913Z,12.50
2018-05-08T05:28:55.469Z,13.10
2018-05-08T05:31:23.032Z,14.30
2018-05-08T05:33:50.603Z,15.20
2018-05-08T05:36:18.150Z,15.70
2018-05-08T05:38:45.604Z,15.80
2018-05-08T05:41:13.060Z,15.70
2018-05-08T05:43:40.517Z,15.40
2018-05-08T05:46:07.984Z,15.20
2018-05-08T05:48:35.435Z,15.00
2018-05-08T05:51:02.893Z,14.80
2018-05-08T05:53:30.365Z,14.80
2018-05-08T05:55:58.584Z,14.80
2018-05-08T05:58:26.096Z,14.70
2018-05-08T06:00:53.657Z,14.80
2018-05-08T06:03:21.124Z,14.80
2018-05-08T06:05:48.677Z,14.90
2018-05-08T06:08:16.127Z,15.00
2018-05-08T06:10:43.589Z,15.10
2018-05-08T06:13:11.043Z,15.10
2018-05-08T06:15:38.500Z,15.10
2018-05-08T06:18:06.065Z,15.20
2018-05-08T06:20:33.624Z,15.30
2018-05-08T06:23:01.080Z,15.30
2018-05-08T06:25:28.645Z,15.40
2018-05-08T06:27:56.101Z,15.40
2018-05-08T06:30:23.556Z,15.40
2018-05-08T06:32:51.118Z,15.40
2018-05-08T06:35:18.677Z,15.60
2018-05-08T06:37:46.128Z,15.70
2018-05-08T06:40:13.588Z,15.70
2018-05-08T06:42:41.157Z,15.70
2018-05-08T06:45:08.612Z,15.80
2018-05-08T06:47:36.172Z,15.80
2018-05-08T06:50:03.733Z,16.00
2018-05-08T06:52:31.188Z,16.00
2018-05-08T06:54:58.658Z,16.10
2018-05-08T06:57:26.112Z,16.10
2018-05-08T06:59:54.380Z,16.30
2018-05-08T07:02:21.836Z,16.30
2018-05-08T07:04:49.406Z,16.40
2018-05-08T07:07:16.857Z,16.40
2018-05-08T07:09:44.317Z,16.40
2018-05-08T07:12:11.774Z,16.40
2018-05-08T07:14:39.231Z,16.40
2018-05-08T07:17:06.791Z,16.50
2018-05-08T07:19:34.247Z,16.70
2018-05-08T07:22:01.701Z,16.90
2018-05-08T07:24:29.156Z,17.00
2018-05-08T07:26:56.616Z,17.10
2018-05-08T07:29:24.084Z,17.30
2018-05-08T07:31:51.606Z,17.40
2018-05-08T07:34:19.102Z,17.30
2018-05-08T07:36:46.622Z,17.50
2018-05-08T07:39:14.130Z,17.60
2018-05-08T07:41:41.748Z,17.50
2018-05-08T07:44:09.200Z,17.30
2018-05-08T07:46:36.660Z,17.30
2018-05-08T07:49:04.224Z,17.50
2018-05-08T07:51:31.782Z,17.60
2018-05-08T07:53:59.228Z,17.70
2018-05-08T07:56:26.741Z,17.70
2018-05-08T07:58:54.204Z,17.90
2018-05-08T08:01:21.755Z,18.00
2018-05-08T08:03:49.217Z,18.10
2018-05-08T08:06:16.678Z,18.10
2018-05-08T08:08:44.141Z,18.20
2018-05-08T08:11:11.646Z,18.10
2018-05-08T08:13:39.141Z,18.20
2018-05-08T08:16:06.706Z,18.40
2018-05-08T08:18:34.172Z,18.60
2018-05-08T08:21:01.625Z,18.70
2018-05-08T08:23:29.185Z,18.70
2018-05-08T08:25:56.640Z,18.70
2018-05-08T08:28:24.196Z,18.90
2018-05-08T08:30:51.761Z,19.10
2018-05-08T08:33:19.217Z,19.40
2018-05-08T08:35:46.777Z,19.50
2018-05-08T08:38:14.232Z,19.60
2018-05-08T08:40:41.688Z,19.80
2018-05-08T08:43:09.264Z,19.80
2018-05-08T08:45:36.713Z,19.80
2018-05-08T08:48:04.169Z,20.00
2018-05-08T08:50:31.692Z,20.00
2018-05-08T08:52:59.152Z,19.80
2018-05-08T08:55:26.649Z,19.80
2018-05-08T08:57:54.104Z,20.00
2018-05-08T09:00:21.665Z,20.20
2018-05-08T09:02:49.129Z,20.20
2018-05-08T09:05:16.685Z,20.20
2018-05-08T09:07:44.307Z,20.30
2018-05-08T09:10:11.753Z,20.30
2018-05-08T09:12:39.261Z,20.30
2018-05-08T09:15:06.721Z,20.30
2018-05-08T09:17:34.176Z,20.40
2018-05-08T09:20:01.624Z,20.30
2018-05-08T09:22:29.085Z,20.30
2018-05-08T09:24:56.537Z,20.40
2018-05-08T09:27:24.077Z,20.50
2018-05-08T09:29:51.460Z,20.40
2018-05-08T09:32:18.991Z,20.60
2018-05-08T09:34:46.549Z,20.70
2018-05-08T09:37:14.046Z,20.80
2018-05-08T09:39:41.500Z,20.90
2018-05-08T09:42:09.065Z,20.90
2018-05-08T09:44:36.526Z,21.00
2018-05-08T09:47:03.981Z,21.20
2018-05-08T09:49:31.540Z,21.40
2018-05-08T09:51:58.996Z,21.50
2018-05-08T09:54:26.461Z,21.70
2018-05-08T09:56:53.916Z,21.70
2018-05-08T09:59:21.374Z,21.90
2018-05-08T10:01:48.833Z,22.10
2018-05-08T10:04:16.303Z,22.20
2018-05-08T10:06:43.919Z,22.10
2018-05-08T10:09:11.300Z,22.30
2018-05-08T10:11:38.869Z,22.20
2018-05-08T10:14:06.433Z,22.10
2018-05-08T10:16:33.884Z,22.10
2018-05-08T10:19:01.344Z,22.20
2018-05-08T10:21:28.798Z,22.20
2018-05-08T10:23:56.369Z,22.20
2018-05-08T10:26:23.925Z,22.40
2018-05-08T10:28:51.381Z,22.40
2018-05-08T10:31:18.837Z,22.40
2018-05-08T10:33:46.295Z,22.30
2018-05-08T10:36:13.856Z,22.40
2018-05-08T10:38:41.412Z,22.60
2018-05-08T10:41:08.976Z,22.70
2018-05-08T10:43:36.441Z,22.60
2018-05-08T10:46:03.996Z,22.60
2018-05-08T10:48:31.553Z,22.60
2018-05-08T10:50:59.116Z,22.60
2018-05-08T10:53:26.681Z,22.60
2018-05-08T10:55:54.133Z,22.50
2018-05-08T10:58:21.692Z,22.60
2018-05-08T11:00:49.148Z,22.70
2018-05-08T11:03:16.673Z,22.70
2018-05-08T11:05:44.177Z,22.90
2018-05-08T11:08:11.632Z,23.00
2018-05-08T11:10:39.084Z,23.00
2018-05-08T11:13:06.540Z,23.00
2018-05-08T11:15:33.999Z,23.20
2018-05-08T11:18:01.503Z,23.30
2018-05-08T11:20:28.907Z,23.20
2018-05-08T11:22:56.368Z,23.00
2018-05-08T11:25:23.836Z,22.90
2018-05-08T11:27:51.394Z,23.00
2018-05-08T11:30:18.956Z,23.10
2018-05-08T11:32:46.412Z,23.20
2018-05-08T11:35:13.870Z,23.30
2018-05-08T11:37:41.338Z,23.20
2018-05-08T11:40:08.893Z,23.10
2018-05-08T11:42:36.351Z,23.30
2018-05-08T11:45:03.904Z,23.50
2018-05-08T11:47:31.371Z,23.70
2018-05-08T11:49:58.875Z,23.70
2018-05-08T11:52:26.384Z,23.60
2018-05-08T11:54:53.941Z,23.70
2018-05-08T11:57:21.404Z,23.80
2018-05-08T11:59:49.701Z,23.50
2018-05-08T12:02:17.157Z,23.50
2018-05-08T12:04:44.700Z,23.40
2018-05-08T12:07:12.256Z,23.40
2018-05-08T12:09:39.713Z,23.40
2018-05-08T12:12:07.173Z,23.40
2018-05-08T12:14:34.819Z,23.40
2018-05-08T12:17:02.192Z,23.50
2018-05-08T12:19:29.648Z,23.40
2018-05-08T12:21:57.105Z,23.40
2018-05-08T12:24:24.669Z,23.40
2018-05-08T12:26:52.134Z,23.40
2018-05-08T12:29:20.400Z,23.30
2018-05-08T12:31:47.965Z,23.30
2018-05-08T12:34:15.422Z,23.30
2018-05-08T12:36:42.981Z,23.30
2018-05-08T12:39:10.437Z,23.30
2018-05-08T12:41:37.897Z,23.20
2018-05-08T12:44:05.456Z,23.20
2018-05-08T12:46:33.083Z,23.40
2018-05-08T12:49:00.528Z,23.60
2018-05-08T12:51:28.101Z,23.90
2018-05-08T12:53:55.601Z,24.00
2018-05-08T12:56:23.062Z,24.00
2018-05-08T12:58:50.530Z,23.90
2018-05-08T13:01:18.080Z,23.90
2018-05-08T13:03:45.637Z,23.80
2018-05-08T13:06:13.197Z,23.80
2018-05-08T13:08:41.470Z,23.80
2018-05-08T13:11:08.927Z,23.80
2018-05-08T13:13:36.380Z,23.90
2018-05-08T13:16:03.952Z,23.80
2018-05-08T13:18:31.505Z,23.70
2018-05-08T13:20:59.064Z,23.60
2018-05-08T13:23:26.625Z,23.60
2018-05-08T13:25:54.185Z,23.40
2018-05-08T13:28:21.749Z,23.50
2018-05-08T13:30:49.309Z,23.20
2018-05-08T13:33:16.784Z,23.20
2018-05-08T13:35:45.005Z,23.20
2018-05-08T13:38:12.474Z,23.20
2018-05-08T13:40:39.960Z,23.20
2018-05-08T13:43:07.417Z,23.30
2018-05-08T13:45:34.979Z,23.30
2018-05-08T13:48:02.582Z,23.20
2018-05-08T13:50:30.018Z,23.30
2018-05-08T13:52:57.556Z,23.40
2018-05-08T13:55:25.018Z,23.50
2018-05-08T13:57:52.472Z,23.60
2018-05-08T14:00:20.041Z,23.60
2018-05-08T14:02:47.607Z,23.70
2018-05-08T14:05:15.166Z,23.80
2018-05-08T14:07:42.723Z,23.90
2018-05-08T14:10:10.173Z,23.80
2018-05-08T14:12:37.624Z,23.80
2018-05-08T14:15:05.193Z,23.80
2018-05-08T14:17:32.649Z,23.80
2018-05-08T14:20:00.104Z,23.80
2018-05-08T14:22:27.561Z,23.50
2018-05-08T14:24:55.035Z,23.20
2018-05-08T14:27:22.585Z,23.10
2018-05-08T14:29:50.144Z,22.80
2018-05-08T14:32:17.720Z,22.70
2018-05-08T14:34:45.264Z,22.60
2018-05-08T14:37:12.736Z,22.60
2018-05-08T14:39:40.291Z,22.60
2018-05-08T14:42:08.561Z,22.60
2018-05-08T14:44:36.025Z,22.60
2018-05-08T14:47:03.477Z,22.60
2018-05-08T14:49:31.092Z,22.50
2018-05-08T14:51:58.598Z,22.50
2018-05-08T14:54:26.156Z,22.50
2018-05-08T14:56:53.716Z,22.60
2018-05-08T14:59:21.277Z,22.60
2018-05-08T15:01:48.836Z,22.50
2018-05-08T15:04:16.473Z,22.40
2018-05-08T15:06:43.853Z,22.40
2018-05-08T15:09:11.416Z,22.30
2018-05-08T15:11:38.880Z,22.20
2018-05-08T15:14:06.435Z,22.10
2018-05-08T15:16:33.992Z,22.10
2018-05-08T15:19:01.469Z,22.10
2018-05-08T15:21:29.020Z,22.10
2018-05-08T15:23:56.483Z,22.10
2018-05-08T15:26:24.038Z,22.20
2018-05-08T15:28:51.492Z,22.10
2018-05-08T15:31:18.949Z,22.20
2018-05-08T15:33:46.408Z,22.10
2018-05-08T15:36:13.875Z,22.00
2018-05-08T15:38:41.421Z,21.90
2018-05-08T15:41:09.004Z,21.80
2018-05-08T15:43:36.457Z,21.80
2018-05-08T15:46:04.013Z,21.80
2018-05-08T15:48:31.477Z,21.80
2018-05-08T15:50:58.941Z,21.90
2018-05-08T15:53:27.192Z,22.00
2018-05-08T15:55:54.757Z,21.90
2018-05-08T15:58:22.318Z,21.90
2018-05-08T16:00:49.773Z,21.80
2018-05-08T16:03:17.229Z,21.70
2018-05-08T16:05:44.685Z,21.80
2018-05-08T16:08:12.253Z,21.80
2018-05-08T16:10:39.808Z,21.80
2018-05-08T16:13:07.266Z,21.80
2018-05-08T16:15:34.829Z,21.70
2018-05-08T16:18:02.292Z,21.60
2018-05-08T16:20:30.569Z,21.60
2018-05-08T16:22:58.029Z,21.50
2018-05-08T16:25:25.585Z,21.50
2018-05-08T16:27:53.874Z,21.40
2018-05-08T16:30:21.447Z,21.50
2018-05-08T16:32:48.987Z,21.40
2018-05-08T16:35:16.445Z,21.40
2018-05-08T16:37:43.901Z,21.50
2018-05-08T16:40:11.357Z,21.50
2018-05-08T16:42:38.914Z,21.40
2018-05-08T16:45:06.481Z,21.40
2018-05-08T16:47:34.709Z,21.20
2018-05-08T16:50:02.169Z,21.20
2018-05-08T16:52:29.624Z,21.10
2018-05-08T16:54:57.125Z,21.10
2018-05-08T16:57:24.589Z,21.10
2018-05-08T16:59:52.148Z,21.10
2018-05-08T17:02:19.706Z,21.10
2018-05-08T17:04:47.332Z,21.00
2018-05-08T17:07:14.831Z,21.00
2018-05-08T17:09:42.281Z,21.00
2018-05-08T17:12:09.908Z,21.00
2018-05-08T17:14:37.360Z,20.90
2018-05-08T17:17:04.821Z,20.90
2018-05-08T17:19:32.277Z,20.90
2018-05-08T17:21:59.843Z,20.90
2018-05-08T17:24:27.341Z,20.80
2018-05-08T17:26:54.901Z,20.80
2018-05-08T17:29:22.373Z,20.80
2018-05-08T17:31:49.983Z,20.80
2018-05-08T17:34:17.428Z,20.80
2018-05-08T17:36:44.893Z,20.80
2018-05-08T17:39:12.360Z,20.80
2018-05-08T17:41:39.854Z,20.90
2018-05-08T17:44:07.418Z,20.80
2018-05-08T17:46:34.984Z,20.90
2018-05-08T17:49:02.444Z,21.00
2018-05-08T17:51:29.993Z,21.00
2018-05-08T17:53:57.465Z,20.90
2018-05-08T17:56:24.934Z,20.90
2018-05-08T17:58:53.164Z,20.70
2018-05-08T18:01:20.631Z,20.70
2018-05-08T18:03:48.089Z,20.60
2018-05-08T18:06:15.660Z,20.50
2018-05-08T18:08:43.116Z,20.30
2018-05-08T18:11:10.568Z,20.30
2018-05-08T18:13:38.138Z,20.20
2018-05-08T18:16:05.597Z,20.20
2018-05-08T18:18:33.165Z,20.10
2018-05-08T18:21:00.628Z,20.00
2018-05-08T18:23:28.089Z,19.90
2018-05-08T18:25:55.637Z,19.80
2018-05-08T18:28:23.089Z,19.60
2018-05-08T18:30:50.552Z,19.60
2018-05-08T18:33:18.020Z,19.40
2018-05-08T18:35:45.567Z,19.40
2018-05-08T18:38:13.153Z,19.30
2018-05-08T18:40:41.405Z,19.20
2018-05-08T18:43:08.965Z,19.10
2018-05-08T18:45:36.437Z,19.00
2018-05-08T18:48:03.904Z,19.00
2018-05-08T18:50:31.361Z,18.90
2018-05-08T18:52:58.827Z,18.80
2018-05-08T18:55:27.076Z,18.60
2018-05-08T18:57:54.528Z,18.60
2018-05-08T19:00:21.990Z,18.50
2018-05-08T19:02:49.552Z,18.40
2018-05-08T19:05:17.121Z,18.30
2018-05-08T19:07:44.669Z,18.20
2018-05-08T19:10:12.129Z,18.10
2018-05-08T19:12:39.601Z,18.00
2018-05-08T19:15:12.674Z,18.00
2018-05-08T19:17:40.136Z,17.80
2018-05-08T19:20:07.589Z,17.80
2018-05-08T19:22:35.152Z,17.70
2018-05-08T19:25:02.611Z,17.70
2018-05-08T19:27:30.067Z,17.70
2018-05-08T19:30:04.118Z,17.50
2018-05-08T19:32:32.360Z,17.40
2018-05-08T19:35:05.449Z,17.40
2018-05-08T19:37:39.372Z,17.30
2018-05-08T19:40:06.921Z,17.20
2018-05-08T19:42:34.898Z,17.20
2018-05-08T19:45:02.450Z,17.10
2018-05-08T19:47:30.005Z,17.10
2018-05-08T19:49:57.469Z,17.00
2018-05-08T19:52:25.095Z,17.00
2018-05-08T19:54:52.488Z,16.90
2018-05-08T19:57:19.943Z,16.80
2018-05-08T19:59:47.501Z,16.80
2018-05-08T20:02:15.069Z,16.70
2018-05-08T20:04:42.521Z,16.70
2018-05-08T20:07:09.978Z,16.70
2018-05-08T20:09:37.553Z,16.60
2018-05-08T20:12:05.097Z,16.60
2018-05-08T20:14:32.657Z,16.50
2018-05-08T20:17:00.220Z,16.50
2018-05-08T20:19:27.692Z,16.50
2018-05-08T20:21:55.245Z,16.40
2018-05-08T20:24:22.713Z,16.30
2018-05-08T20:26:50.264Z,16.30
2018-05-08T20:29:17.716Z,16.30
2018-05-08T20:31:45.172Z,16.20
2018-05-08T20:34:12.737Z,16.10
2018-05-08T20:36:40.204Z,16.10
2018-05-08T20:39:07.753Z,16.10
2018-05-08T20:41:35.317Z,16.00
2018-05-08T20:44:02.873Z,15.90
2018-05-08T20:46:30.436Z,15.90
2018-05-08T20:48:57.992Z,15.80
2018-05-08T20:51:25.515Z,15.80
2018-05-08T20:53:53.017Z,15.70
2018-05-08T20:56:20.484Z,15.70
2018-05-08T20:58:47.941Z,15.70
2018-05-08T21:01:15.563Z,15.60
2018-05-08T21:03:43.670Z,15.50
2018-05-08T21:06:11.133Z,15.50
2018-05-08T21:08:38.597Z,15.40
2018-05-08T21:11:06.851Z,15.30
2018-05-08T21:13:34.308Z,15.30
2018-05-08T21:16:01.878Z,15.30
2018-05-08T21:18:29.337Z,15.40
2018-05-08T21:20:56.897Z,15.30
2018-05-08T21:23:24.382Z,15.20
2018-05-08T21:25:52.604Z,15.10
2018-05-08T21:28:25.844Z,15.10
2018-05-08T21:30:59.768Z,15.00
2018-05-08T21:33:27.984Z,15.00
2018-05-08T21:35:55.440Z,15.00
2018-05-08T21:38:22.925Z,14.90
2018-05-08T21:40:50.380Z,14.90
2018-05-08T21:43:17.937Z,14.90
2018-05-08T21:45:45.397Z,14.90
2018-05-08T21:48:12.857Z,14.90
2018-05-08T21:50:40.318Z,14.80
2018-05-08T21:53:07.875Z,14.80
2018-05-08T21:55:35.328Z,14.80
2018-05-08T21:58:02.780Z,14.70
2018-05-08T22:00:30.250Z,14.70
2018-05-08T22:02:57.895Z,14.70
2018-05-08T22:05:25.383Z,14.80
2018-05-08T22:07:52.937Z,14.70
2018-05-08T22:10:20.406Z,14.70
2018-05-08T22:12:47.868Z,14.70
2018-05-08T22:15:16.118Z,14.60
2018-05-08T22:17:43.573Z,14.60
2018-05-08T22:20:11.054Z,14.60
2018-05-08T22:22:38.603Z,14.50
2018-05-08T22:25:06.184Z,14.50
2018-05-08T22:27:33.637Z,14.50
2018-05-08T22:30:01.098Z,14.50
2018-05-08T22:32:28.556Z,14.40
2018-05-08T22:34:56.010Z,14.30
2018-05-08T22:37:23.465Z,14.30
2018-05-08T22:39:50.925Z,14.30
2018-05-08T22:42:18.385Z,14.20
2018-05-08T22:44:45.856Z,14.10
2018-05-08T22:47:14.099Z,14.00
2018-05-08T22:49:41.554Z,14.00
2018-05-08T22:52:09.182Z,14.10
2018-05-08T22:54:36.648Z,14.10
2018-05-08T22:57:04.149Z,14.00
2018-05-08T22:59:31.601Z,14.10
2018-05-08T23:01:59.069Z,14.10
2018-05-08T23:04:26.532Z,14.00
2018-05-08T23:06:54.785Z,14.00
2018-05-08T23:09:22.245Z,14.00
2018-05-08T23:11:49.709Z,14.00
2018-05-08T23:14:17.171Z,13.90
2018-05-08T23:16:44.639Z,13.90
2018-05-08T23:19:12.096Z,13.80
2018-05-08T23:21:39.640Z,13.80
2018-05-08T23:24:07.207Z,13.80
2018-05-08T23:26:34.756Z,13.70
2018-05-08T23:29:02.214Z,13.60
2018-05-08T23:31:29.785Z,13.60
2018-05-08T23:33:57.254Z,13.50
2018-05-08T23:36:24.716Z,13.40
2018-05-08T23:38:52.252Z,13.40
2018-05-08T23:41:19.817Z,13.30
2018-05-08T23:43:47.273Z,13.30
2018-05-08T23:46:14.829Z,13.20
2018-05-08T23:48:42.291Z,13.20
2018-05-08T23:51:09.850Z,13.30
2018-05-08T23:53:37.409Z,13.20
2018-05-08T23:56:04.974Z,13.20
2018-05-08T23:58:32.534Z,13.20
